createdAt,value
2022-09-10T00:03:11.983Z,97153.97
2022-09-10T00:08:16.453Z,97237.16
2022-09-10T00:13:22.961Z,97221.97
2022-09-10T00:18:25.368Z,97202.72
2022-09-10T00:23:30.419Z,97213.50
2022-09-10T00:28:33.009Z,97173.25
2022-09-10T00:33:35.656Z,97156.63
2022-09-10T00:38:39.955Z,97165.06
2022-09-10T00:43:51.017Z,97143.63
2022-09-10T00:48:55.923Z,97130.19
2022-09-10T00:54:00.221Z,97129.47
2022-09-10T00:59:04.372Z,97126.97
2022-09-10T01:04:10.542Z,97130.75
2022-09-10T01:09:15.148Z,97114.63
2022-09-10T01:14:43.833Z,97122.84
2022-09-10T01:20:14.962Z,97123.66
2022-09-10T01:25:24.531Z,97112.28
2022-09-10T01:30:32.827Z,97101.59
2022-09-10T01:35:40.759Z,97115.00
2022-09-10T01:40:43.628Z,97114.41
2022-09-10T01:46:10.418Z,97098.31
2022-09-10T01:51:21.824Z,97089.25
2022-09-10T01:56:35.401Z,97067.75
2022-09-10T02:01:45.573Z,97056.28
2022-09-10T02:06:49.073Z,97068.22
2022-09-10T02:11:54.079Z,97065.63
2022-09-10T02:17:13.989Z,97050.44
2022-09-10T02:22:16.700Z,97046.03
2022-09-10T02:27:19.388Z,97064.91
2022-09-10T02:32:23.366Z,97070.94
2022-09-10T02:37:28.214Z,97054.72
2022-09-10T02:42:30.767Z,97067.25
2022-09-10T02:47:34.703Z,97064.03
2022-09-10T02:52:37.376Z,97067.81
2022-09-10T02:57:42.132Z,97065.25
2022-09-10T03:02:47.295Z,97076.84
2022-09-10T03:07:50.340Z,97070.41
2022-09-10T03:12:53.753Z,97070.09
2022-09-10T03:17:58.250Z,97067.81
2022-09-10T03:23:01.081Z,97060.78
2022-09-10T03:28:03.984Z,97053.63
2022-09-10T03:33:08.734Z,97059.19
2022-09-10T03:38:11.684Z,97061.03
2022-09-10T03:43:15.271Z,97051.41
2022-09-10T03:48:20.414Z,97075.63
2022-09-10T03:53:23.629Z,96995.50
2022-09-10T03:58:26.695Z,97087.28
2022-09-10T04:03:30.892Z,97060.91
2022-09-10T04:08:33.485Z,97065.09
2022-09-10T04:13:36.140Z,97065.09
2022-09-10T04:18:40.481Z,97005.13
2022-09-10T04:23:43.807Z,97054.53
2022-09-10T04:28:46.868Z,97039.09
2022-09-10T04:33:53.575Z,97052.28
2022-09-10T04:38:59.818Z,97030.84
2022-09-10T04:44:03.428Z,97021.03
2022-09-10T04:49:07.739Z,97006.84
2022-09-10T04:54:13.434Z,96989.31
2022-09-10T04:59:16.853Z,96988.72
2022-09-10T05:04:22.789Z,96953.31
2022-09-10T05:09:28.253Z,96930.94
2022-09-10T05:14:31.495Z,96898.88
2022-09-10T05:19:35.437Z,96905.16
2022-09-10T05:24:43.005Z,96902.56
2022-09-10T05:29:45.999Z,96891.03
2022-09-10T05:34:50.345Z,96901.00
2022-09-10T05:39:53.192Z,96879.47
2022-09-10T05:44:56.032Z,96855.81
2022-09-10T05:50:00.225Z,96868.38
2022-09-10T05:55:03.794Z,96875.88
2022-09-10T06:00:09.034Z,96761.56
2022-09-10T06:05:21.045Z,96871.13
2022-09-10T06:10:24.186Z,96839.75
2022-09-10T06:15:27.838Z,96857.50
2022-09-10T06:20:32.043Z,96864.41
2022-09-10T06:25:35.872Z,96860.84
2022-09-10T06:30:38.964Z,96815.03
2022-09-10T06:35:44.917Z,96858.81
2022-09-10T06:40:54.504Z,96859.34
2022-09-10T06:45:57.433Z,96844.19
2022-09-10T06:51:23.043Z,96762.97
2022-09-10T06:56:27.211Z,96789.78
2022-09-10T07:01:30.613Z,96717.06
2022-09-10T07:06:38.255Z,96629.53
2022-09-10T07:11:44.842Z,96663.41
2022-09-10T07:16:51.297Z,96631.41
2022-09-10T07:21:57.079Z,96602.41
2022-09-10T07:27:00.160Z,96592.41
2022-09-10T07:32:04.330Z,96528.00
2022-09-10T07:37:09.225Z,96517.31
2022-09-10T07:42:12.489Z,96460.38
2022-09-10T07:47:16.836Z,96439.94
2022-09-10T07:52:21.588Z,96395.53
2022-09-10T07:57:28.548Z,96337.75
2022-09-10T08:02:31.438Z,96268.00
2022-09-10T08:07:40.560Z,96203.59
2022-09-10T08:12:43.523Z,96157.38
2022-09-10T08:17:47.085Z,96115.41
2022-09-10T08:22:52.455Z,96009.09
2022-09-10T08:27:55.312Z,96119.94
2022-09-10T08:32:58.885Z,96081.19
2022-09-10T08:38:02.965Z,96123.63
2022-09-10T08:43:06.608Z,96106.13
2022-09-10T08:48:15.718Z,96104.25
2022-09-10T08:53:25.757Z,96104.41
2022-09-10T08:58:31.796Z,96145.63
2022-09-10T09:03:36.936Z,96126.66
2022-09-10T09:08:48.685Z,96182.69
2022-09-10T09:14:20.408Z,96184.78
2022-09-10T09:19:29.246Z,96203.16
2022-09-10T09:24:41.176Z,96200.50
2022-09-10T09:29:48.801Z,96191.22
2022-09-10T09:34:54.323Z,96170.09
2022-09-10T09:40:08.680Z,96323.69
2022-09-10T09:45:21.996Z,96274.78
2022-09-10T09:50:24.779Z,96315.75
2022-09-10T09:55:31.144Z,96376.78
2022-09-10T10:00:36.495Z,96423.69
2022-09-10T10:05:39.356Z,96489.28
2022-09-10T10:10:44.659Z,96534.06
2022-09-10T10:15:47.475Z,96632.72
2022-09-10T10:20:53.254Z,96709.81
2022-09-10T10:25:57.385Z,96890.94
2022-09-10T10:31:01.419Z,96973.03
2022-09-10T10:36:10.074Z,97009.34
2022-09-10T10:41:34.202Z,97158.75
2022-09-10T10:46:41.235Z,97192.16
2022-09-10T10:51:51.290Z,97251.88
2022-09-10T10:57:02.477Z,97355.84
2022-09-10T11:02:14.893Z,97513.97
2022-09-10T11:07:21.696Z,97595.72
2022-09-10T11:12:31.476Z,97740.41
2022-09-10T11:17:39.568Z,97817.91
2022-09-10T11:23:07.557Z,97922.63
2022-09-10T11:28:16.945Z,98053.00
2022-09-10T11:33:24.344Z,98081.94
2022-09-10T11:38:45.731Z,98118.78
2022-09-10T11:43:55.494Z,98237.06
2022-09-10T11:49:09.339Z,98305.69
2022-09-10T11:54:14.543Z,98381.53
2022-09-10T11:59:49.968Z,98397.03
2022-09-10T12:04:57.592Z,98468.22
2022-09-10T12:10:14.500Z,98522.22
2022-09-10T12:15:20.544Z,98600.91
2022-09-10T12:20:28.463Z,98630.34
2022-09-10T12:25:34.533Z,98676.69
2022-09-10T12:31:02.709Z,98712.28
2022-09-10T12:36:07.173Z,98800.47
2022-09-10T12:41:10.700Z,98826.13
2022-09-10T12:46:18.743Z,98869.56
2022-09-10T12:51:32.892Z,98862.31
2022-09-10T12:57:09.769Z,98890.88
2022-09-10T13:02:28.421Z,98911.50
2022-09-10T13:07:41.642Z,98893.47
2022-09-10T13:12:45.168Z,98876.97
2022-09-10T13:18:29.302Z,98835.94
2022-09-10T13:23:50.017Z,98797.00
2022-09-10T13:29:11.139Z,98788.41
2022-09-10T13:34:53.422Z,98752.75
2022-09-10T13:40:23.025Z,98724.94
2022-09-10T13:45:29.205Z,98701.03
2022-09-10T13:50:37.639Z,98674.31
2022-09-10T13:55:50.923Z,98670.25
2022-09-10T14:00:58.145Z,98631.97
2022-09-10T14:06:05.072Z,98607.00
2022-09-10T14:11:16.375Z,98580.03
2022-09-10T14:16:21.866Z,98602.53
2022-09-10T14:21:27.941Z,98593.56
2022-09-10T14:26:33.464Z,98580.34
2022-09-10T14:31:37.219Z,98585.78
2022-09-10T14:36:39.798Z,98551.78
2022-09-10T14:41:44.674Z,98529.94
2022-09-10T14:46:50.197Z,98462.88
2022-09-10T14:51:52.867Z,98451.78
2022-09-10T14:56:59.436Z,98418.84
2022-09-10T15:02:03.326Z,98372.59
2022-09-10T15:07:05.962Z,98359.13
2022-09-10T15:12:14.878Z,98343.66
2022-09-10T15:17:18.523Z,98305.25
2022-09-10T15:22:24.598Z,98294.38
2022-09-10T15:27:28.508Z,98277.78
2022-09-10T15:32:31.394Z,98247.78
2022-09-10T15:37:33.972Z,98254.50
2022-09-10T15:42:38.044Z,98253.41
2022-09-10T15:47:41.831Z,98260.66
2022-09-10T15:52:44.798Z,98241.00
2022-09-10T15:57:50.715Z,98221.53
2022-09-10T16:02:54.155Z,98206.81
2022-09-10T16:07:56.804Z,98169.44
2022-09-10T16:13:00.828Z,98153.50
2022-09-10T16:18:03.384Z,98137.19
2022-09-10T16:23:05.970Z,98139.81
2022-09-10T16:28:09.887Z,98134.88
2022-09-10T16:33:12.488Z,98129.84
2022-09-10T16:38:15.053Z,98092.31
2022-09-10T16:43:18.965Z,98082.84
2022-09-10T16:48:21.778Z,98058.59
2022-09-10T16:53:24.392Z,98065.72
2022-09-10T16:58:29.541Z,98040.50
2022-09-10T17:03:34.416Z,98050.78
2022-09-10T17:08:37.203Z,98007.66
2022-09-10T17:13:41.380Z,98051.97
2022-09-10T17:18:44.576Z,98010.34
2022-09-10T17:23:47.224Z,98021.00
2022-09-10T17:28:55.549Z,97963.41
2022-09-10T17:33:59.093Z,98004.38
2022-09-10T17:39:01.662Z,97999.84
2022-09-10T17:44:05.582Z,97990.28
2022-09-10T17:49:08.240Z,97975.72
2022-09-10T17:54:10.881Z,97987.09
2022-09-10T17:59:14.910Z,97982.94
2022-09-10T18:04:17.912Z,97943.91
2022-09-10T18:09:20.512Z,97925.59
2022-09-10T18:14:25.658Z,97906.72
2022-09-10T18:19:28.247Z,97905.41
2022-09-10T18:24:31.494Z,97863.00
2022-09-10T18:29:35.464Z,97786.66
2022-09-10T18:34:40.478Z,97744.16
2022-09-10T18:39:43.124Z,97704.00
2022-09-10T18:44:47.080Z,97673.81
2022-09-10T18:49:50.367Z,97668.31
2022-09-10T18:54:53.018Z,97649.88
2022-09-10T18:59:57.066Z,97627.81
2022-09-10T19:05:11.279Z,97563.00
2022-09-10T19:10:14.561Z,97605.13
2022-09-10T19:15:18.585Z,97533.16
2022-09-10T19:20:21.836Z,97488.34
2022-09-10T19:25:24.671Z,97480.81
2022-09-10T19:30:31.529Z,97464.28
2022-09-10T19:35:36.552Z,97450.06
2022-09-10T19:40:39.718Z,97443.44
2022-09-10T19:45:43.788Z,97429.28
2022-09-10T19:50:46.346Z,97335.75
2022-09-10T19:55:49.710Z,97371.72
2022-09-10T20:00:53.716Z,97353.66
2022-09-10T20:05:57.097Z,97355.78
2022-09-10T20:10:59.696Z,97359.25
2022-09-10T20:16:04.580Z,97364.34
2022-09-10T20:21:12.685Z,97362.41
2022-09-10T20:26:17.568Z,97362.50
2022-09-10T20:31:22.716Z,97347.41
2022-09-10T20:36:26.254Z,97320.53
2022-09-10T20:41:29.957Z,97318.84
2022-09-10T20:46:34.360Z,97264.53
2022-09-10T20:51:38.754Z,97293.03
2022-09-10T20:56:41.455Z,97289.38
2022-09-10T21:01:46.906Z,97293.03
2022-09-10T21:06:49.582Z,97283.47
2022-09-10T21:11:52.164Z,97272.94
2022-09-10T21:16:56.119Z,97279.34
2022-09-10T21:21:58.689Z,97260.00
2022-09-10T21:27:02.985Z,97226.38
2022-09-10T21:32:07.223Z,97256.59
2022-09-10T21:37:10.182Z,97254.47
2022-09-10T21:42:12.756Z,97273.22
2022-09-10T21:47:16.689Z,97196.69
2022-09-10T21:52:19.267Z,97171.31
2022-09-10T21:57:21.818Z,97174.59
2022-09-10T22:02:25.787Z,97162.06
2022-09-10T22:07:29.950Z,97141.09
2022-09-10T22:12:32.615Z,97126.03
2022-09-10T22:17:36.568Z,97133.38
2022-09-10T22:22:39.308Z,97125.63
2022-09-10T22:27:41.896Z,97117.72
2022-09-10T22:32:45.827Z,97047.84
2022-09-10T22:37:48.416Z,97145.09
2022-09-10T22:42:51.616Z,97089.59
2022-09-10T22:47:55.524Z,97132.00
2022-09-10T22:52:59.224Z,97110.22
2022-09-10T22:58:01.984Z,97077.44
2022-09-10T23:03:05.943Z,97015.31
2022-09-10T23:08:08.523Z,97016.94
2022-09-10T23:13:11.110Z,97009.31
2022-09-10T23:18:15.025Z,96997.94
2022-09-10T23:23:17.633Z,96969.19
2022-09-10T23:28:20.231Z,96969.97
2022-09-10T23:33:24.151Z,96797.00
2022-09-10T23:38:27.483Z,96802.91
2022-09-10T23:43:30.598Z,96818.94
2022-09-10T23:48:34.530Z,96786.00
2022-09-10T23:53:37.093Z,96762.53
2022-09-10T23:58:40.262Z,96754.84
